Terminal Aerodrome Forecast
Issued by NWS

Home | Current Version | Previous Version | Text Only | Print | Product List | Glossary On
Versions: 1 2 3 4 5 6 7 8 9 10 11 12 13 14
255
FTUS43 KGRB 192334
TAFMTW
TAF
KMTW 192334Z 2000/2024 16012G18KT P6SM BKN110
     FM200100 17010KT P6SM BKN100 WS015/21035KT
     FM200300 17010KT P6SM VCSH BKN050 WS015/22035KT
     FM200600 18008KT P6SM BKN050
     FM201000 VRB03KT 6SM BR BKN012
      TEMPO 2011/2015 3SM BR BKN007
     FM201600 34007KT P6SM SCT020 BKN150
     FM201800 01011KT P6SM BKN150=

USA.gov is the U.S. government's official web portal to all federal, state and local government web resources and services.